• Join FlightAware (Why Join?)
  • Login
  • US Flag 
09:26AM EST


 

Airport Tracker/Info


-or-


 

Live Flight TrackerFlight Track Log ✈ EJM916 ✈ 07-Jul-2013 ✈ KSDL - KFAY

Flight Track Log - Related Links

Times and Time Zones

All times are in EDT time to prevent confusion due to time zone crossing. See the EJM916 flight status page for this flight to view local times or setup timezone preferences in your user account.

Time Position Orientation Groundspeed Altitude Reporting Facility
EDT Latitude Longitude Course Direction KTS MPH feet Rate Location/Type
01:01PM 36.0142 -86.6053 78° East 447 514 39,000  Level Memphis Center
01:02PM 36.0094 -86.4542 92° East 437 503 39,000  Level Memphis Center
01:04PM 36.0022 -86.1794 92° East 443 510 39,000  Level Atlanta Center
01:05PM 35.9967 -86.0150 92° East 443 510 39,000  Level Atlanta Center
01:06PM 35.9925 -85.8633 92° East 443 510 39,000  Level Atlanta Center
01:07PM 35.4717 -86.2137 78° East  Level Estimated
01:07PM 35.9881 -85.7478 93° East 436 502 39,000  Level Atlanta Center
01:08PM 35.9819 -85.5836 93° East 436 502 39,000  Level Atlanta Center
01:09PM 35.9753 -85.4319 93° East 436 502 39,000  Level Atlanta Center
01:10PM 35.9706 -85.2831 92° East 436 502 39,000  Level Atlanta Center
01:11PM 35.9639 -85.1317 93° East 436 502 39,000  Level Atlanta Center
01:12PM 35.9608 -84.9803 91° East 436 502 39,000  Level Atlanta Center
01:13PM 35.9494 -84.8108 95° East 457 526 39,000  Level Atlanta Center
01:14PM 35.9461 -84.6722 92° East 458 527 39,000  Level Atlanta Center
01:15PM 35.9364 -84.5208 94° East 453 521 39,000  Level Atlanta Center
01:16PM 35.9286 -84.3542 93° East 441 507 39,000  Level Atlanta Center
01:17PM 35.9206 -84.2028 94° East 441 507 39,000  Level Atlanta Center
01:18PM 35.9122 -84.0489 94° East 441 507 39,000  Level Atlanta Center
01:19PM 35.9039 -83.8978 94° East 441 507 39,000  Level Atlanta Center
01:20PM 35.8847 -83.7467 99° East 441 507 39,000  Level Atlanta Center
01:21PM 35.8614 -83.5981 101° East 446 513 39,000  Level Atlanta Center
01:22PM 35.8400 -83.4494 100° East 446 513 39,000  Level Atlanta Center
01:23PM 35.8161 -83.2986 101° East 446 513 39,000  Level Atlanta Center
01:24PM 35.7922 -83.1478 101° East 454 522 39,000 -300 Level Atlanta Center
01:25PM 35.7722 -82.9969 99° East 449 517 38,400 -720 Descending Atlanta Center
01:26PM 35.7503 -82.8617 101° East 449 517 37,600 -900 Descending Atlanta Center
01:27PM 35.7297 -82.7086 99° East 449 517 36,600 -1,080 Descending Atlanta Center
01:28PM 35.7114 -82.5553 98° East 459 528 35,500 -1,080 Descending Atlanta Center
01:29PM 35.6844 -82.4000 102° East 461 531 34,500 -1,020 Descending Atlanta Center
01:30PM 35.6592 -82.2394 101° East 471 542 33,500 -1,140 Descending Atlanta Center
01:31PM 35.6358 -82.0814 100° East 471 542 32,300 -1,500 Descending Atlanta Center
01:32PM 35.6081 -81.9211 102° East 471 542 30,600 -1,800 Descending Atlanta Center
01:33PM 35.5989 -81.7553 94° East 476 548 28,700 -1,740 Descending Atlanta Center
01:34PM 35.6017 -81.5739 89° East 485 558 27,200 -1,260 Descending Atlanta Center
01:35PM 35.6044 -81.4028 89° East 490 564 26,200 -1,020 Descending Atlanta Center
01:36PM 35.6069 -81.2392 89° East 498 573 25,200 -1,080 Descending Atlanta Center
01:37PM 35.6158 -81.0756 86° East 504 580 24,100 -1,080 Descending Atlanta Center
01:38PM 35.6222 -80.9117 87° East 488 562 23,100 -1,020 Descending Atlanta Center
01:39PM 35.6283 -80.7481 87° East 477 549 22,100 -1,020 Descending Atlanta Center
01:40PM 35.6364 -80.5892 86° East 477 549 21,100 -1,020 Descending Atlanta Center
01:41PM 35.6444 -80.4306 86° East 465 535 20,100 -1,260 Descending Atlanta Center
01:43PM 35.6469 -80.1700 89° East 456 525 17,800 -1,560 Descending Washington Center
01:44PM 35.6378 -80.0236 94° East 434 499 15,900 -1,440 Descending Washington Center
01:45PM 35.6097 -79.8842 104° East 417 480 15,000 -480 Descending Washington Center
01:46PM 35.5753 -79.7342 106° East 411 473 15,000 -60 Level Washington Center
01:47PM 35.5361 -79.5994 110° East 416 479 14,900 -540 Descending Washington Center
01:48PM 35.5008 -79.4650 108° East 416 479 14,000 -1,020 Descending Washington Center
01:49PM 35.4672 -79.3358 108° East 405 466 12,900 -1,080 Descending Washington Center
01:50PM 35.4339 -79.2069 108° East 400 460 11,900 -1,140 Descending Washington Center
01:51PM 35.4019 -79.0856 108° East 393 452 10,700 -1,380 Descending Washington Center
01:52PM 35.3733 -78.9928 111° Southeast 359 413 9,200 -1,920 Descending Washington Center
01:53PM 35.3258 -78.9017 123° Southeast 305 351 7,000 -2,040 Descending Washington Center
01:54PM 35.2753 -78.8436 137° Southeast 278 320 5,100 -2,040 Descending Washington Center
01:55PM 35.2100 -78.7875 145° Southeast 266 306 3,000 -1,560 Descending Washington Center
01:56PM 35.1472 -78.7875 180° South 252 290 2,000 -720 Descending Washington Center
01:57PM 35.0928 -78.8006 191° South 193 222 1,600 -420 Descending Washington Center